Time;durP1;ratioP1;P1;durP2;ratioP2;P2;SDS_P1;SDS_P2;PMS_P1;PMS_P2;Temp;Humidity;BMP_temperature;BMP_pressure;BME280_temperature;BME280_humidity;BME280_pressure;Samples;Min_cycle;Max_cycle;Signal;HPM_P1;HPM_P2
2024/01/20 00:01:07;;;;;;;17.08;11.77;;;;;;;-1.20;62.76;100108.13;5126624;28;20044;-70
2024/01/20 00:03:36;;;;;;;14.95;12.48;;;;;;;-1.21;63.08;100110.72;5126324;28;20049;-69
2024/01/20 00:06:03;;;;;;;16.75;12.88;;;;;;;-1.40;62.97;100094.19;5126327;28;20055;-69
2024/01/20 00:08:29;;;;;;;17.35;13.05;;;;;;;-1.20;63.26;100128.06;5126200;28;20276;-70
2024/01/20 00:10:56;;;;;;;17.70;13.65;;;;;;;-1.24;63.02;100121.13;5126284;28;20040;-69
2024/01/20 00:13:23;;;;;;;18.23;13.43;;;;;;;-1.25;63.32;100127.19;5125155;28;20040;-69
2024/01/20 00:15:50;;;;;;;16.30;12.02;;;;;;;-1.26;63.04;100117.66;5126328;28;20043;-70
2024/01/20 00:18:16;;;;;;;17.55;12.52;;;;;;;-1.26;63.06;100125.44;5128192;28;20035;-70
2024/01/20 00:20:45;;;;;;;18.73;13.15;;;;;;;-1.28;62.92;100125.44;5130362;28;20184;-69
2024/01/20 00:23:12;;;;;;;18.15;13.18;;;;;;;-1.32;62.82;100124.56;5130101;28;20199;-70
2024/01/20 00:25:40;;;;;;;16.48;12.02;;;;;;;-1.31;62.76;100125.44;5130015;28;20039;-70
2024/01/20 00:28:07;;;;;;;17.55;12.43;;;;;;;-1.33;62.65;100132.34;5129897;28;20039;-69
2024/01/20 00:30:33;;;;;;;16.45;12.75;;;;;;;-1.31;62.78;100135.84;5129893;28;20077;-70
2024/01/20 00:33:00;;;;;;;18.92;12.30;;;;;;;-1.34;62.72;100141.00;5129048;28;20349;-70
2024/01/20 00:35:27;;;;;;;16.60;11.98;;;;;;;-1.34;62.72;100136.69;5130148;28;20096;-70
2024/01/20 00:37:55;;;;;;;16.65;12.65;;;;;;;-1.44;63.14;100134.91;5130396;28;20036;-69
2024/01/20 00:40:22;;;;;;;15.57;11.18;;;;;;;-1.45;62.89;100145.28;5130054;28;20100;-69
2024/01/20 00:42:49;;;;;;;17.58;12.10;;;;;;;-1.43;63.12;100152.22;5130079;28;20236;-70
2024/01/20 00:45:15;;;;;;;16.63;12.52;;;;;;;-1.50;62.97;100160.00;5130040;28;20055;-70
2024/01/20 00:47:42;;;;;;;17.42;12.73;;;;;;;-1.46;62.82;100153.94;5129839;28;20120;-70
2024/01/20 00:50:09;;;;;;;19.10;14.30;;;;;;;-1.49;62.94;100166.94;5129662;28;20108;-70
2024/01/20 00:52:36;;;;;;;23.15;12.18;;;;;;;-1.46;63.05;100173.00;5130083;28;20043;-69
2024/01/20 00:55:04;;;;;;;19.00;13.55;;;;;;;-1.44;63.07;100175.63;5130061;28;20054;-70
2024/01/20 00:57:31;;;;;;;16.33;11.77;;;;;;;-1.53;62.85;100172.97;5129414;28;20327;-69
2024/01/20 00:59:58;;;;;;;14.77;11.18;;;;;;;-1.55;63.05;100182.50;5129346;28;20039;-69
2024/01/20 01:02:25;;;;;;;15.13;12.30;;;;;;;-1.58;63.02;100179.88;5129604;28;20043;-69
2024/01/20 01:04:52;;;;;;;16.27;13.30;;;;;;;-1.56;62.96;100183.34;5130169;28;20238;-69
2024/01/20 01:07:19;;;;;;;17.17;12.35;;;;;;;-1.78;62.87;100135.53;5128990;28;20051;-69
2024/01/20 01:09:45;;;;;;;16.02;12.38;;;;;;;-1.59;63.10;100170.31;5128818;28;20035;-69
2024/01/20 01:12:13;;;;;;;17.50;12.52;;;;;;;-1.64;63.28;100175.50;5129721;28;20051;-70
2024/01/20 01:14:40;;;;;;;17.02;12.30;;;;;;;-1.57;63.40;100186.81;5129293;27;20096;-70
2024/01/20 01:17:07;;;;;;;15.52;11.55;;;;;;;-1.58;63.26;100182.47;5129318;28;20043;-70
2024/01/20 01:19:34;;;;;;;15.65;12.30;;;;;;;-1.58;63.12;100185.06;5130131;28;20047;-69
2024/01/20 01:22:00;;;;;;;17.50;12.75;;;;;;;-1.65;63.38;100186.75;5129238;28;20040;-69
2024/01/20 01:24:27;;;;;;;16.50;12.18;;;;;;;-1.56;63.36;100183.34;5129208;28;20043;-69
2024/01/20 01:26:54;;;;;;;17.13;13.70;;;;;;;-1.60;63.37;100186.78;5129286;28;20051;-69
2024/01/20 01:29:22;;;;;;;15.55;13.10;;;;;;;-1.63;63.39;100174.63;5128546;28;20109;-69
2024/01/20 01:31:48;;;;;;;17.27;12.20;;;;;;;-1.90;63.73;100144.13;5127999;28;20349;-69
2024/01/20 01:34:15;;;;;;;19.27;13.50;;;;;;;-1.67;63.60;100183.28;5129043;28;20104;-69
2024/01/20 01:36:42;;;;;;;21.08;13.30;;;;;;;-1.63;63.55;100185.03;5129285;28;20100;-69
2024/01/20 01:39:09;;;;;;;18.65;12.35;;;;;;;-1.70;63.54;100183.25;5128958;28;20102;-69
2024/01/20 01:41:36;;;;;;;18.73;14.25;;;;;;;-1.71;63.58;100184.09;5129166;28;20055;-69
2024/01/20 01:44:03;;;;;;;23.38;15.55;;;;;;;-1.70;63.65;100194.50;5128824;28;20039;-70
2024/01/20 01:46:32;;;;;;;17.35;13.32;;;;;;;-1.62;63.52;100193.69;5128583;28;20055;-70
2024/01/20 01:48:59;;;;;;;19.63;13.15;;;;;;;-1.69;63.55;100190.19;5128651;28;20040;-70
2024/01/20 01:51:26;;;;;;;18.40;13.23;;;;;;;-1.62;63.32;100188.50;5128759;28;20043;-69
2024/01/20 01:53:53;;;;;;;15.48;12.18;;;;;;;-1.69;63.74;100197.97;5127801;28;20043;-70
2024/01/20 01:56:20;;;;;;;18.02;13.90;;;;;;;-1.71;63.54;100200.56;5128311;28;20096;-70
2024/01/20 01:58:47;;;;;;;20.85;13.82;;;;;;;-1.73;63.70;100197.09;5128479;28;20040;-70
2024/01/20 02:01:14;;;;;;;18.80;12.52;;;;;;;-1.76;63.63;100197.06;5128572;28;20043;-71
2024/01/20 02:03:42;;;;;;;16.08;12.70;;;;;;;-1.71;63.40;100199.69;5128224;28;20230;-70
2024/01/20 02:06:09;;;;;;;17.42;13.15;;;;;;;-1.75;63.25;100204.00;5128705;27;20059;-71
2024/01/20 02:08:39;;;;;;;14.57;11.15;;;;;;;-2.09;63.15;100126.66;5128577;28;20047;-70
2024/01/20 02:11:05;;;;;;;19.45;13.43;;;;;;;-1.71;63.33;100194.50;5128065;28;20047;-71
2024/01/20 02:13:33;;;;;;;18.33;12.32;;;;;;;-1.98;63.72;100161.38;5128249;28;20045;-70
2024/01/20 02:16:00;;;;;;;17.45;13.57;;;;;;;-1.69;63.52;100179.78;5128200;28;20039;-71
2024/01/20 02:18:27;;;;;;;17.85;14.05;;;;;;;-2.38;63.42;100083.13;5127844;28;20040;-71
2024/01/20 02:20:55;;;;;;;19.17;13.38;;;;;;;-1.73;63.62;100184.09;5127875;28;20047;-71
2024/01/20 02:23:23;;;;;;;20.05;14.02;;;;;;;-1.74;64.03;100192.75;5128237;28;20288;-71
2024/01/20 02:25:50;;;;;;;15.23;12.35;;;;;;;-1.73;64.30;100193.63;5128128;28;20096;-71
2024/01/20 02:28:16;;;;;;;18.63;12.65;;;;;;;-1.69;64.12;100198.84;5126762;28;20084;-70
2024/01/20 02:30:46;;;;;;;17.20;12.88;;;;;;;-2.57;63.89;100070.00;5127935;28;20062;-70
2024/01/20 02:33:13;;;;;;;19.85;13.45;;;;;;;-1.69;64.11;100203.19;5127421;28;20055;-70
2024/01/20 02:35:39;;;;;;;18.40;13.23;;;;;;;-1.72;64.12;100210.94;5127568;28;20208;-70
2024/01/20 02:38:06;;;;;;;20.05;13.95;;;;;;;-1.78;64.01;100209.19;5127668;28;20052;-70
2024/01/20 02:40:34;;;;;;;20.10;13.48;;;;;;;-1.74;63.95;100208.34;5126521;28;20303;-71
2024/01/20 02:43:01;;;;;;;17.55;13.73;;;;;;;-1.72;64.03;100222.22;5127748;28;20104;-71
2024/01/20 02:45:28;;;;;;;17.35;13.60;;;;;;;-2.08;64.39;100183.81;5127345;28;20261;-70
2024/01/20 02:47:55;;;;;;;16.83;12.90;;;;;;;-1.89;64.26;100228.13;5127296;28;20084;-71
2024/01/20 02:50:22;;;;;;;19.20;13.68;;;;;;;-3.22;63.89;99995.88;5127640;28;20050;-71
2024/01/20 02:52:49;;;;;;;19.63;13.80;;;;;;;-1.85;64.08;100235.09;5127471;28;20195;-70
2024/01/20 02:55:16;;;;;;;18.38;13.25;;;;;;;-1.81;64.03;100229.06;5127438;28;20069;-70
2024/01/20 02:57:44;;;;;;;17.40;13.20;;;;;;;-1.83;64.08;100230.78;5127167;28;20043;-70
2024/01/20 03:00:11;;;;;;;17.73;13.52;;;;;;;-2.10;64.30;100188.13;5127807;28;20052;-70
2024/01/20 03:02:37;;;;;;;18.83;14.30;;;;;;;-1.83;64.35;100239.44;5127260;28;20051;-71
2024/01/20 03:05:05;;;;;;;18.88;14.35;;;;;;;-1.87;64.19;100232.50;5127364;28;20043;-71
2024/01/20 03:07:31;;;;;;;18.70;13.50;;;;;;;-1.89;64.08;100230.72;5127211;28;20052;-70
2024/01/20 03:09:58;;;;;;;19.27;14.38;;;;;;;-1.95;64.56;100228.94;5126022;28;20047;-70
2024/01/20 03:12:25;;;;;;;18.52;13.52;;;;;;;-4.18;63.83;99851.41;5127162;28;20039;-71
2024/01/20 03:14:54;;;;;;;18.52;14.00;;;;;;;-1.91;64.00;100232.44;5127114;28;20093;-71
2024/01/20 03:17:20;;;;;;;20.17;13.90;;;;;;;-1.97;64.08;100235.84;5126717;28;20054;-70
2024/01/20 03:19:47;;;;;;;34.25;19.77;;;;;;;-1.90;64.90;100241.97;5126140;28;20165;-71
2024/01/20 03:22:14;;;;;;;18.88;14.25;;;;;;;-1.95;64.49;100244.53;5127230;28;20113;-71
2024/01/20 03:24:40;;;;;;;19.70;14.18;;;;;;;-1.99;64.31;100251.44;5127229;28;20284;-71
2024/01/20 03:27:09;;;;;;;19.38;14.05;;;;;;;-1.97;64.18;100247.13;5126926;28;20043;-71
2024/01/20 03:29:35;;;;;;;19.33;14.88;;;;;;;-2.22;64.09;100202.72;5126482;28;20091;-71
2024/01/20 03:32:04;;;;;;;18.75;13.07;;;;;;;-1.94;64.11;100250.59;5126551;27;20044;-71
2024/01/20 03:34:30;;;;;;;22.80;15.50;;;;;;;-2.00;64.35;100251.41;5126775;28;20055;-71
2024/01/20 03:36:57;;;;;;;18.75;13.95;;;;;;;-2.99;64.22;100074.78;5127007;28;20058;-70
2024/01/20 03:39:24;;;;;;;20.88;14.63;;;;;;;-2.02;64.16;100247.94;5126368;28;20085;-71
2024/01/20 03:41:50;;;;;;;18.42;12.98;;;;;;;-2.07;64.38;100250.50;5126219;28;20281;-71
2024/01/20 03:44:17;;;;;;;19.35;14.00;;;;;;;-2.06;64.22;100252.22;5126602;28;20051;-71
2024/01/20 03:46:44;;;;;;;19.23;13.48;;;;;;;-2.06;64.39;100259.16;5126573;28;20097;-70
2024/01/20 03:49:12;;;;;;;18.40;14.43;;;;;;;-2.09;64.36;100269.50;5125597;28;20039;-71
2024/01/20 03:51:38;;;;;;;20.67;12.98;;;;;;;-2.19;64.58;100250.38;5125120;28;20047;-71
2024/01/20 03:54:05;;;;;;;20.90;14.27;;;;;;;-2.06;64.56;100282.53;5125320;28;20043;-71
2024/01/20 03:56:32;;;;;;;19.08;13.68;;;;;;;-2.00;64.25;100285.19;5126140;28;20093;-71
2024/01/20 03:58:59;;;;;;;20.48;14.25;;;;;;;-1.96;64.18;100286.97;5126667;28;20230;-71
2024/01/20 04:01:25;;;;;;;19.02;14.25;;;;;;;-1.93;64.01;100288.72;5126092;28;20288;-71
2024/01/20 04:03:52;;;;;;;16.95;12.80;;;;;;;-2.38;64.11;100218.13;5126360;28;20044;-71
2024/01/20 04:06:20;;;;;;;16.23;13.00;;;;;;;-2.92;64.03;100124.97;5125984;28;20071;-71
2024/01/20 04:08:47;;;;;;;17.30;12.05;;;;;;;-2.00;64.06;100285.19;5126258;28;20047;-71
2024/01/20 04:11:13;;;;;;;18.42;13.77;;;;;;;-2.04;64.10;100284.28;5126141;28;20081;-72
2024/01/20 04:13:40;;;;;;;18.83;13.38;;;;;;;-2.02;63.89;100277.38;5125439;28;20113;-71
2024/01/20 04:16:07;;;;;;;19.35;13.15;;;;;;;-2.03;64.03;100277.38;5126249;28;20077;-71
2024/01/20 04:18:33;;;;;;;18.00;13.55;;;;;;;-1.96;64.07;100286.97;5125962;28;20088;-71
2024/01/20 04:21:00;;;;;;;16.98;13.30;;;;;;;-1.93;63.86;100273.13;5125872;28;20081;-70
2024/01/20 04:23:28;;;;;;;22.90;12.88;;;;;;;-1.91;63.91;100277.50;5126157;28;20283;-71
2024/01/20 04:25:55;;;;;;;18.13;12.43;;;;;;;-1.91;63.89;100276.63;5126151;28;20044;-71
2024/01/20 04:28:21;;;;;;;21.63;13.45;;;;;;;-1.91;63.63;100280.09;5125002;28;20105;-71
2024/01/20 04:30:48;;;;;;;18.30;12.27;;;;;;;-1.92;63.63;100280.94;5126144;28;20040;-71
2024/01/20 04:33:15;;;;;;;17.88;13.57;;;;;;;-1.93;63.55;100279.19;5126350;28;20311;-71
2024/01/20 04:35:41;;;;;;;17.25;12.73;;;;;;;-1.91;63.46;100284.41;5126073;28;20062;-71
2024/01/20 04:38:08;;;;;;;14.77;11.07;;;;;;;-1.98;63.36;100283.47;5125987;28;20353;-71
2024/01/20 04:40:36;;;;;;;18.33;12.18;;;;;;;-2.20;63.47;100238.22;5125931;28;20043;-71
2024/01/20 04:43:03;;;;;;;16.50;12.10;;;;;;;-1.96;63.29;100284.38;5125922;28;20070;-71
2024/01/20 04:45:30;;;;;;;18.30;12.98;;;;;;;-1.93;63.24;100292.19;5125725;28;20054;-71
2024/01/20 04:47:57;;;;;;;17.73;12.65;;;;;;;-2.58;63.04;100190.22;5125601;28;20044;-71
2024/01/20 04:50:24;;;;;;;18.55;12.40;;;;;;;-1.92;62.94;100296.53;5125543;28;20265;-71
2024/01/20 04:52:51;;;;;;;15.43;11.25;;;;;;;-1.99;62.85;100294.72;5124711;28;20116;-71
2024/01/20 04:55:18;;;;;;;16.85;12.02;;;;;;;-2.26;63.35;100255.47;5125808;28;20043;-71
2024/01/20 04:57:46;;;;;;;14.85;11.75;;;;;;;-2.04;62.95;100289.47;5125364;28;20067;-71
2024/01/20 05:00:14;;;;;;;15.95;11.15;;;;;;;-2.04;63.06;100292.06;5126068;28;20161;-71
2024/01/20 05:02:40;;;;;;;16.05;11.75;;;;;;;-2.02;62.75;100290.38;5126067;28;20044;-71
2024/01/20 05:05:08;;;;;;;14.13;11.18;;;;;;;-2.36;62.71;100220.75;5128437;28;20052;-71
2024/01/20 05:07:34;;;;;;;13.73;10.18;;;;;;;-1.97;62.96;100295.63;5129768;28;20047;-71
2024/01/20 05:10:01;;;;;;;15.32;10.80;;;;;;;-1.99;62.83;100295.59;5128256;28;20077;-71
2024/01/20 05:12:28;;;;;;;14.70;10.93;;;;;;;-2.05;63.18;100297.25;5128689;28;20047;-71
2024/01/20 05:14:57;;;;;;;15.60;12.18;;;;;;;-2.05;63.06;100299.84;5129424;28;20108;-71
2024/01/20 05:17:23;;;;;;;17.50;11.80;;;;;;;-1.98;63.32;100297.34;5129048;28;20256;-70
2024/01/20 05:19:50;;;;;;;16.10;11.70;;;;;;;-2.02;62.99;100294.69;5129414;28;20040;-71
2024/01/20 05:22:18;;;;;;;15.35;11.32;;;;;;;-2.01;63.36;100299.91;5129242;28;20073;-71
2024/01/20 05:24:44;;;;;;;13.35;10.43;;;;;;;-2.32;63.23;100251.09;5128850;28;20312;-71
2024/01/20 05:27:11;;;;;;;15.35;10.80;;;;;;;-1.99;62.82;100300.78;5129170;28;20050;-71
2024/01/20 05:29:38;;;;;;;13.50;10.57;;;;;;;-2.06;63.06;100305.91;5128732;28;20063;-71
2024/01/20 05:32:06;;;;;;;14.20;10.85;;;;;;;-2.07;63.14;100305.03;5129299;28;20081;-71
2024/01/20 05:34:33;;;;;;;13.23;10.48;;;;;;;-2.06;62.95;100306.78;5128939;28;20044;-71
2024/01/20 05:36:59;;;;;;;12.68;10.20;;;;;;;-1.99;62.99;100302.53;5128914;28;20211;-71
2024/01/20 05:39:26;;;;;;;11.80;10.02;;;;;;;-2.07;62.82;100304.16;5128894;28;20039;-71
2024/01/20 05:41:52;;;;;;;14.38;10.73;;;;;;;-2.10;63.19;100305.00;5128872;28;20215;-71
2024/01/20 05:44:19;;;;;;;13.52;10.10;;;;;;;-2.37;62.79;100250.16;5128526;28;20070;-71
2024/01/20 05:46:46;;;;;;;15.40;11.05;;;;;;;-2.00;62.69;100313.75;5128454;28;20353;-71
2024/01/20 05:49:14;;;;;;;12.93;9.55;;;;;;;-2.22;62.74;100283.22;5128633;28;20203;-71
2024/01/20 05:51:40;;;;;;;17.45;11.70;;;;;;;-2.05;62.72;100320.63;5128678;28;20199;-71
2024/01/20 05:54:07;;;;;;;14.80;10.35;;;;;;;-2.06;62.30;100317.16;5128303;28;20043;-71
2024/01/20 05:56:34;;;;;;;13.40;10.13;;;;;;;-2.00;62.55;100329.34;5128602;28;20059;-71
2024/01/20 05:59:00;;;;;;;14.50;10.95;;;;;;;-2.04;62.55;100337.97;5128741;28;20043;-71
2024/01/20 06:01:27;;;;;;;13.50;10.95;;;;;;;-2.00;62.60;100343.22;5128411;28;20058;-71
2024/01/20 06:03:54;;;;;;;14.82;9.80;;;;;;;-2.00;62.72;100348.41;5128409;28;20043;-71
2024/01/20 06:06:22;;;;;;;15.32;11.15;;;;;;;-2.17;62.33;100307.50;5127917;28;20055;-71
2024/01/20 06:08:48;;;;;;;16.73;12.07;;;;;;;-2.01;62.46;100351.00;5128494;28;20047;-71
2024/01/20 06:11:15;;;;;;;16.05;10.73;;;;;;;-1.99;62.42;100347.56;5128309;28;20040;-71
2024/01/20 06:13:42;;;;;;;14.63;10.25;;;;;;;-2.00;62.60;100357.94;5128201;28;20043;-71
2024/01/20 06:16:08;;;;;;;17.02;10.77;;;;;;;-2.06;62.44;100361.31;5128348;28;20097;-71
2024/01/20 06:18:35;;;;;;;17.77;11.15;;;;;;;-2.05;62.93;100359.59;5127234;28;20039;-71
2024/01/20 06:21:02;;;;;;;13.80;11.05;;;;;;;-2.04;62.66;100356.16;5128043;28;20108;-71
2024/01/20 06:23:30;;;;;;;13.50;10.93;;;;;;;-2.12;62.67;100361.25;5127710;28;20290;-71
2024/01/20 06:25:57;;;;;;;21.48;10.13;;;;;;;-2.12;62.70;100373.38;5128253;28;20039;-71
2024/01/20 06:28:23;;;;;;;14.32;10.98;;;;;;;-2.15;63.11;100365.53;5128215;28;20234;-70
2024/01/20 06:30:50;;;;;;;15.70;11.18;;;;;;;-2.07;62.74;100363.91;5127722;28;20043;-71
2024/01/20 06:33:17;;;;;;;16.02;10.48;;;;;;;-2.11;62.65;100368.19;5127671;28;20074;-71
2024/01/20 06:35:43;;;;;;;15.73;11.10;;;;;;;-2.12;62.41;100368.19;5127843;28;20196;-71
2024/01/20 06:38:10;;;;;;;14.40;12.18;;;;;;;-2.10;62.45;100369.06;5127712;28;20059;-71
2024/01/20 06:40:38;;;;;;;14.05;10.77;;;;;;;-2.08;62.52;100375.16;5127391;28;20252;-71
2024/01/20 06:43:06;;;;;;;14.45;10.20;;;;;;;-2.06;62.68;100371.72;5127338;28;20039;-71
2024/01/20 06:45:34;;;;;;;14.35;11.18;;;;;;;-2.09;62.36;100373.41;5127778;28;20079;-71
2024/01/20 06:48:02;;;;;;;14.35;10.57;;;;;;;-2.09;62.20;100376.00;5127259;28;20110;-71
2024/01/20 06:50:29;;;;;;;12.13;9.77;;;;;;;-2.09;62.60;100376.00;5127688;28;20103;-71
2024/01/20 06:52:55;;;;;;;14.82;10.13;;;;;;;-2.08;62.33;100377.75;5127206;28;20050;-71
2024/01/20 06:55:22;;;;;;;15.82;10.77;;;;;;;-2.06;62.19;100384.72;5127406;28;20125;-72
2024/01/20 06:57:50;;;;;;;13.52;10.32;;;;;;;-2.34;62.07;100349.72;5126069;28;20048;-71
2024/01/20 07:00:17;;;;;;;12.70;9.80;;;;;;;-2.07;62.43;100389.88;5127306;28;20101;-71
2024/01/20 07:02:44;;;;;;;15.02;11.13;;;;;;;-2.08;62.07;100399.41;5127026;28;20357;-72
2024/01/20 07:05:10;;;;;;;13.52;10.00;;;;;;;-2.12;62.17;100409.72;5126861;28;20043;-71
2024/01/20 07:07:37;;;;;;;12.35;9.57;;;;;;;-2.13;62.28;100418.38;5127413;28;20114;-71
2024/01/20 07:10:05;;;;;;;12.20;9.65;;;;;;;-2.04;62.30;100419.38;5127088;28;20045;-71
2024/01/20 07:12:32;;;;;;;11.88;9.43;;;;;;;-2.05;61.86;100420.22;5126995;28;20047;-71
2024/01/20 07:15:01;;;;;;;13.20;10.35;;;;;;;-2.00;61.94;100415.94;5127002;28;20047;-71
2024/01/20 07:17:28;;;;;;;15.13;10.73;;;;;;;-2.01;61.79;100411.63;5126954;28;20092;-71
2024/01/20 07:19:55;;;;;;;13.90;10.63;;;;;;;-2.01;61.80;100413.34;5126931;28;20043;-71
2024/01/20 07:22:21;;;;;;;14.73;10.20;;;;;;;-2.00;61.86;100417.69;5126639;28;20043;-71
2024/01/20 07:24:48;;;;;;;12.77;10.55;;;;;;;-2.26;61.84;100373.19;5126545;28;20144;-71
2024/01/20 07:27:15;;;;;;;14.68;9.20;;;;;;;-1.99;61.65;100422.91;5125999;28;20040;-71
2024/01/20 07:29:41;;;;;;;13.35;10.00;;;;;;;-1.98;61.14;100421.16;5126345;28;20044;-71
2024/01/20 07:32:11;;;;;;;12.60;9.68;;;;;;;-2.11;61.47;100395.91;5127069;28;20093;-71
2024/01/20 07:34:37;;;;;;;16.40;10.75;;;;;;;-1.93;61.66;100436.81;5126727;28;20040;-71
2024/01/20 07:37:04;;;;;;;14.50;9.40;;;;;;;-1.87;61.15;100439.50;5126761;28;20039;-71
2024/01/20 07:39:31;;;;;;;12.20;9.00;;;;;;;-1.87;61.25;100440.34;5126315;28;20047;-71
2024/01/20 07:41:58;;;;;;;12.93;9.48;;;;;;;-1.84;61.14;100444.72;5126297;28;20242;-71
2024/01/20 07:44:24;;;;;;;12.15;9.57;;;;;;;-1.86;60.81;100462.91;5126464;28;20055;-71
2024/01/20 07:46:51;;;;;;;11.90;9.05;;;;;;;-1.83;61.02;100452.53;5126136;28;20105;-71
2024/01/20 07:49:19;;;;;;;12.50;10.45;;;;;;;-1.79;61.20;100456.91;5126272;28;20039;-71
2024/01/20 07:51:46;;;;;;;11.27;8.75;;;;;;;-1.72;60.98;100450.06;5126396;28;20092;-71
2024/01/20 07:54:12;;;;;;;11.80;8.73;;;;;;;-1.63;60.90;100460.56;5126110;28;20211;-71
2024/01/20 07:56:39;;;;;;;12.45;8.55;;;;;;;-1.57;60.61;100458.03;5126082;28;20039;-71
2024/01/20 07:59:06;;;;;;;12.30;8.57;;;;;;;-1.42;60.64;100465.13;5126295;28;20088;-71
2024/01/20 08:01:32;;;;;;;13.05;8.95;;;;;;;-1.36;60.02;100465.19;5126552;28;20077;-71
2024/01/20 08:03:59;;;;;;;16.13;9.80;;;;;;;-1.40;60.41;100435.69;5125824;28;20036;-72
2024/01/20 08:06:28;;;;;;;12.77;9.45;;;;;;;-1.02;59.63;100475.09;5125760;28;20062;-71
2024/01/20 08:08:54;;;;;;;14.20;9.98;;;;;;;-0.88;59.98;100482.19;5126463;28;20051;-71
2024/01/20 08:11:21;;;;;;;12.82;9.48;;;;;;;-0.79;58.82;100490.06;5126604;28;20039;-72
2024/01/20 08:13:48;;;;;;;11.32;8.30;;;;;;;-0.83;58.63;100446.66;5126148;28;20044;-71
2024/01/20 08:16:15;;;;;;;11.48;8.32;;;;;;;-0.52;58.49;100486.81;5126181;28;20058;-71
2024/01/20 08:18:42;;;;;;;10.02;8.27;;;;;;;-1.08;58.47;100391.78;5126183;28;20040;-71
2024/01/20 08:21:08;;;;;;;10.05;8.60;;;;;;;-0.30;57.67;100487.84;5126100;28;20039;-71
2024/01/20 08:23:36;;;;;;;12.35;8.43;;;;;;;-0.20;57.94;100493.13;5126402;28;20048;-71
2024/01/20 08:26:04;;;;;;;9.50;7.85;;;;;;;-0.13;57.71;100492.31;5125940;28;20090;-71
2024/01/20 08:28:31;;;;;;;11.35;7.93;;;;;;;-0.01;56.66;100488.91;5125847;28;20039;-71
2024/01/20 08:30:58;;;;;;;10.25;7.22;;;;;;;0.07;55.86;100501.97;5126028;28;20056;-72
2024/01/20 08:33:25;;;;;;;11.60;7.70;;;;;;;0.11;55.65;100499.38;5125952;28;20055;-72
2024/01/20 08:35:51;;;;;;;11.68;8.48;;;;;;;0.30;55.73;100500.34;5126225;28;20092;-72
2024/01/20 08:38:18;;;;;;;12.32;7.97;;;;;;;0.27;55.37;100488.16;5126728;28;20062;-71
2024/01/20 08:40:46;;;;;;;12.07;8.20;;;;;;;0.51;55.04;100490.00;5130056;28;20051;-72
2024/01/20 08:43:14;;;;;;;9.32;7.35;;;;;;;0.47;54.65;100456.06;5129900;28;20317;-72
2024/01/20 08:45:41;;;;;;;9.48;7.57;;;;;;;0.78;54.17;100489.22;5129974;28;20044;-71
2024/01/20 08:48:08;;;;;;;11.57;7.82;;;;;;;0.90;54.52;100491.84;5129403;28;20250;-71
2024/01/20 08:50:34;;;;;;;9.50;7.57;;;;;;;1.00;53.66;100492.72;5129572;28;20089;-71
2024/01/20 08:53:01;;;;;;;10.80;7.90;;;;;;;1.13;52.99;100491.00;5129742;28;20047;-71
2024/01/20 08:55:28;;;;;;;9.57;7.45;;;;;;;1.23;52.63;100493.63;5128585;28;20202;-72
2024/01/20 08:57:56;;;;;;;12.73;9.40;;;;;;;1.26;53.12;100487.53;5129646;28;20044;-72
2024/01/20 09:00:23;;;;;;;10.40;8.55;;;;;;;1.24;52.89;100490.16;5129415;28;20044;-72
2024/01/20 09:02:50;;;;;;;11.88;8.18;;;;;;;1.31;52.47;100490.16;5129515;28;20044;-72
2024/01/20 09:05:17;;;;;;;10.80;7.47;;;;;;;1.43;52.12;100498.00;5129377;28;20039;-72
2024/01/20 09:07:44;;;;;;;10.30;7.00;;;;;;;1.42;51.81;100485.81;5129001;28;20212;-72
2024/01/20 09:10:12;;;;;;;9.48;7.65;;;;;;;1.53;51.94;100495.38;5128635;28;20047;-72
2024/01/20 09:12:38;;;;;;;10.00;7.18;;;;;;;1.67;51.87;100482.34;5129518;28;20043;-71
2024/01/20 09:15:08;;;;;;;11.07;7.75;;;;;;;-1.89;50.06;99892.97;5128756;28;20316;-72
2024/01/20 09:17:34;;;;;;;9.35;6.70;;;;;;;1.62;51.17;100491.91;5129081;28;20082;-72
2024/01/20 09:20:01;;;;;;;8.73;6.90;;;;;;;1.70;51.04;100502.38;5129005;28;20040;-72
2024/01/20 09:22:28;;;;;;;9.93;7.57;;;;;;;1.76;50.41;100511.06;5129249;28;20058;-72
2024/01/20 09:24:56;;;;;;;11.60;8.35;;;;;;;1.68;50.19;100447.50;5129022;28;20039;-72
2024/01/20 09:27:23;;;;;;;12.45;8.55;;;;;;;2.01;50.19;100492.72;5128943;28;20070;-71
2024/01/20 09:29:49;;;;;;;13.32;8.18;;;;;;;1.97;50.10;100491.00;5128278;28;20055;-72
2024/01/20 09:32:18;;;;;;;8.00;7.18;;;;;;;2.04;49.28;100490.97;5128933;28;20043;-72
2024/01/20 09:34:44;;;;;;;10.25;8.60;;;;;;;2.25;49.69;100490.03;5129269;28;20106;-72
2024/01/20 09:37:11;;;;;;;10.85;8.80;;;;;;;2.39;49.88;100524.88;5128930;28;20043;-72
2024/01/20 09:39:38;;;;;;;13.52;7.78;;;;;;;2.51;49.20;100474.25;5128796;28;20040;-71
2024/01/20 09:42:05;;;;;;;10.75;7.85;;;;;;;2.64;49.04;100478.53;5128675;28;20261;-72
2024/01/20 09:44:32;;;;;;;9.35;7.95;;;;;;;2.60;48.23;100441.91;5128700;28;20047;-72
2024/01/20 09:46:58;;;;;;;11.07;8.23;;;;;;;2.60;48.17;100447.16;5128961;28;20080;-73
2024/01/20 09:49:26;;;;;;;10.85;7.72;;;;;;;2.65;47.88;100477.66;5128191;28;20044;-72
2024/01/20 09:51:57;;;;;;;10.77;8.50;;;;;;;2.16;48.29;100393.31;5128424;28;20084;-72
2024/01/20 09:54:25;;;;;;;14.45;9.40;;;;;;;2.83;47.79;100474.94;5127446;28;20036;-72
2024/01/20 09:56:52;;;;;;;9.25;7.40;;;;;;;3.34;47.78;100482.44;5128584;28;20044;-72
2024/01/20 09:59:21;;;;;;;10.38;7.93;;;;;;;3.39;47.35;100478.91;5127345;28;20065;-72
2024/01/20 10:01:51;;;;;;;11.48;7.70;;;;;;;3.39;46.65;100486.75;5128591;28;20051;-72
2024/01/20 10:04:20;;;;;;;11.20;8.57;;;;;;;3.48;46.92;100478.81;5127783;28;20050;-72
2024/01/20 10:06:51;;;;;;;8.35;7.00;;;;;;;2.81;45.54;100387.69;5127948;27;20120;-73
2024/01/20 10:09:17;;;;;;;9.52;7.25;;;;;;;3.46;46.18;100479.72;5128266;28;20104;-72
2024/01/20 10:11:44;;;;;;;8.13;6.95;;;;;;;3.44;46.27;100489.34;5128186;28;20040;-72
2024/01/20 10:14:11;;;;;;;7.85;6.80;;;;;;;3.57;45.77;100503.22;5128132;28;20169;-73
2024/01/20 10:16:39;;;;;;;8.70;7.65;;;;;;;3.55;45.94;100497.13;5128042;28;20063;-72
2024/01/20 10:19:06;;;;;;;9.75;6.97;;;;;;;3.62;45.12;100493.56;5128137;28;20103;-72
2024/01/20 10:21:39;;;;;;;11.23;6.72;;;;;;;3.45;45.25;100463.13;5128061;28;20035;-72
2024/01/20 10:24:07;;;;;;;8.73;7.00;;;;;;;3.58;44.43;100437.66;5128037;28;20047;-72
2024/01/20 10:26:41;;;;;;;10.00;7.15;;;;;;;3.91;43.95;100470.56;5127922;28;20052;-72
2024/01/20 10:29:08;;;;;;;11.23;7.97;;;;;;;4.07;44.44;100466.88;5127957;28;20052;-72
2024/01/20 10:31:35;;;;;;;9.15;7.35;;;;;;;4.11;44.59;100465.09;5127361;28;20036;-72
2024/01/20 10:34:01;;;;;;;10.23;6.70;;;;;;;4.17;44.06;100476.38;5128060;28;20211;-72
2024/01/20 10:36:28;;;;;;;8.85;7.28;;;;;;;4.20;43.67;100465.03;5127672;28;20208;-72
2024/01/20 10:39:01;;;;;;;9.48;7.10;;;;;;;4.33;43.40;100457.88;5127754;28;20093;-72
2024/01/20 10:41:30;;;;;;;9.48;7.63;;;;;;;4.31;43.87;100455.25;5127953;28;20081;-72
2024/01/20 10:44:01;;;;;;;8.52;6.57;;;;;;;4.41;43.15;100450.78;5127696;28;20051;-71
2024/01/20 10:46:30;;;;;;;10.23;6.53;;;;;;;4.47;43.04;100446.31;5127599;28;20043;-71
2024/01/20 10:49:00;;;;;;;9.02;7.28;;;;;;;4.49;42.61;100444.53;5127278;28;20077;-72
2024/01/20 10:51:28;;;;;;;9.48;6.90;;;;;;;4.69;43.08;100451.28;5127020;28;20043;-72
2024/01/20 10:53:55;;;;;;;9.85;6.43;;;;;;;4.86;42.06;100449.28;5127797;28;20059;-72
2024/01/20 10:56:23;;;;;;;7.47;6.70;;;;;;;5.00;41.81;100439.47;5127127;28;20061;-72
2024/01/20 10:59:02;;;;;;;8.60;6.03;;;;;;;5.12;40.76;100434.00;5127039;28;20299;-72
2024/01/20 11:01:30;;;;;;;8.95;6.45;;;;;;;4.66;41.73;100383.03;5126453;28;20204;-72
2024/01/20 11:03:57;;;;;;;7.50;5.90;;;;;;;5.01;41.67;100437.69;5127203;28;20044;-73
2024/01/20 11:06:25;;;;;;;7.63;6.03;;;;;;;5.02;40.66;100453.44;5126432;28;20111;-72
2024/01/20 11:08:52;;;;;;;7.85;6.13;;;;;;;5.03;40.42;100442.03;5127184;28;20048;-73
2024/01/20 11:11:19;;;;;;;9.52;6.82;;;;;;;5.02;40.30;100439.44;5126422;28;20093;-72
2024/01/20 11:13:47;;;;;;;7.57;5.55;;;;;;;4.84;41.11;100414.28;5126786;28;20102;-73